createdAt,value
2023-04-18T00:02:10.850Z,100.00
2023-04-18T00:04:40.550Z,100.00
2023-04-18T00:07:10.176Z,100.00
2023-04-18T00:09:39.773Z,100.00
2023-04-18T00:12:09.842Z,100.00
2023-04-18T00:14:41.250Z,100.00
2023-04-18T00:17:13.466Z,100.00
2023-04-18T00:19:43.529Z,100.00
2023-04-18T00:22:13.282Z,100.00
2023-04-18T00:24:42.884Z,100.00
2023-04-18T00:27:12.516Z,100.00
2023-04-18T00:29:42.720Z,100.00
2023-04-18T00:32:14.891Z,100.00
2023-04-18T00:34:44.449Z,100.00
2023-04-18T00:37:14.013Z,100.00
2023-04-18T00:39:43.548Z,100.00
2023-04-18T00:42:13.127Z,100.00
2023-04-18T00:44:42.780Z,100.00
2023-04-18T00:47:14.939Z,100.00
2023-04-18T00:49:44.492Z,100.00
2023-04-18T00:52:14.364Z,100.00
2023-04-18T00:54:44.098Z,100.00
2023-04-18T00:57:13.779Z,100.00
2023-04-18T00:59:43.318Z,100.00
2023-04-18T01:02:15.983Z,100.00
2023-04-18T01:04:45.700Z,100.00
2023-04-18T01:07:15.290Z,100.00
2023-04-18T01:09:44.863Z,100.00
2023-04-18T01:12:14.404Z,100.00
2023-04-18T01:14:44.442Z,100.00
2023-04-18T01:17:17.630Z,100.00
2023-04-18T01:19:47.331Z,100.00
2023-04-18T01:22:16.920Z,100.00
2023-04-18T01:24:49.053Z,100.00
2023-04-18T01:27:18.616Z,100.00
2023-04-18T01:29:48.156Z,100.00
2023-04-18T01:32:20.285Z,100.00
2023-04-18T01:34:50.101Z,100.00
2023-04-18T01:37:19.638Z,100.00
2023-04-18T01:39:51.782Z,100.00
2023-04-18T01:42:21.315Z,100.00
2023-04-18T01:44:50.954Z,100.00
2023-04-18T01:47:20.527Z,100.00
2023-04-18T01:49:50.131Z,100.00
2023-04-18T01:52:19.697Z,100.00
2023-04-18T01:54:51.836Z,100.00
2023-04-18T01:57:21.437Z,100.00
2023-04-18T01:59:51.022Z,100.00
2023-04-18T02:02:20.775Z,100.00
2023-04-18T02:04:50.353Z,100.00
2023-04-18T02:07:19.955Z,100.00
2023-04-18T02:09:52.074Z,100.00
2023-04-18T02:12:21.672Z,100.00
2023-04-18T02:14:54.032Z,100.00
2023-04-18T02:17:24.366Z,100.00
2023-04-18T02:19:54.056Z,100.00
2023-04-18T02:22:23.609Z,100.00
2023-04-18T02:24:55.714Z,100.00
2023-04-18T02:27:25.256Z,100.00
2023-04-18T02:29:54.813Z,100.00
2023-04-18T02:32:24.396Z,100.00
2023-04-18T02:34:53.970Z,100.00
2023-04-18T02:37:23.858Z,100.00
2023-04-18T02:39:56.710Z,100.00
2023-04-18T02:42:26.647Z,100.00
2023-04-18T02:44:56.374Z,100.00
2023-04-18T02:47:26.125Z,100.00
2023-04-18T02:49:56.299Z,100.00
2023-04-18T02:52:25.927Z,100.00
2023-04-18T02:54:58.086Z,100.00
2023-04-18T02:57:27.791Z,100.00
2023-04-18T02:59:57.353Z,100.00
2023-04-18T03:02:27.011Z,100.00
2023-04-18T03:04:56.701Z,100.00
2023-04-18T03:07:26.562Z,100.00
2023-04-18T03:09:58.772Z,100.00
2023-04-18T03:12:28.395Z,100.00
2023-04-18T03:14:58.076Z,100.00
2023-04-18T03:17:27.732Z,100.00
2023-04-18T03:19:57.269Z,100.00
2023-04-18T03:22:27.069Z,100.00
2023-04-18T03:25:00.260Z,100.00
2023-04-18T03:27:29.887Z,100.00
2023-04-18T03:29:59.440Z,100.00
2023-04-18T03:32:29.093Z,100.00
2023-04-18T03:34:58.666Z,100.00
2023-04-18T03:37:28.248Z,100.00
2023-04-18T03:40:00.400Z,100.00
2023-04-18T03:42:29.952Z,100.00
2023-04-18T03:44:59.784Z,100.00
2023-04-18T03:47:29.369Z,100.00
2023-04-18T03:49:58.940Z,100.00
2023-04-18T03:52:29.842Z,100.00
2023-04-18T03:55:01.931Z,100.00
2023-04-18T03:57:31.523Z,100.00
2023-04-18T04:00:01.099Z,100.00
2023-04-18T04:02:30.770Z,100.00
2023-04-18T04:05:00.474Z,100.00
2023-04-18T04:07:30.087Z,100.00
2023-04-18T04:10:02.307Z,100.00
2023-04-18T04:12:31.857Z,100.00
2023-04-18T04:15:01.434Z,100.00
2023-04-18T04:17:31.068Z,100.00
2023-04-18T04:20:00.658Z,100.00
2023-04-18T04:22:30.262Z,100.00
2023-04-18T04:25:02.822Z,100.00
2023-04-18T04:27:34.201Z,100.00
2023-04-18T04:30:04.340Z,100.00
2023-04-18T04:32:33.933Z,100.00
2023-04-18T04:35:03.608Z,100.00
2023-04-18T04:37:33.670Z,0.00
2023-04-18T04:40:09.413Z,100.00
2023-04-18T04:42:41.216Z,100.00
2023-04-18T04:45:12.596Z,100.00
2023-04-18T04:47:42.204Z,100.00
2023-04-18T04:50:15.836Z,100.00
2023-04-18T04:52:45.508Z,100.00
2023-04-18T04:55:17.684Z,100.00
2023-04-18T04:57:47.956Z,100.00
2023-04-18T05:00:21.011Z,100.00
2023-04-18T05:02:50.755Z,100.00
2023-04-18T05:05:20.416Z,100.00
2023-04-18T05:07:50.012Z,100.00
2023-04-18T05:10:22.382Z,100.00
2023-04-18T05:12:51.930Z,100.00
2023-04-18T05:15:23.086Z,100.00
2023-04-18T05:17:52.659Z,100.00
2023-04-18T05:20:22.237Z,100.00
2023-04-18T05:22:51.843Z,100.00
2023-04-18T05:25:24.190Z,100.00
2023-04-18T05:27:53.809Z,100.00
2023-04-18T05:30:23.490Z,100.00
2023-04-18T05:32:53.102Z,100.00
2023-04-18T05:35:22.686Z,100.00
2023-04-18T05:37:52.287Z,100.00
2023-04-18T05:40:24.706Z,100.00
2023-04-18T05:42:54.275Z,100.00
2023-04-18T05:45:23.885Z,100.00
2023-04-18T05:47:54.052Z,100.00
2023-04-18T05:50:23.667Z,100.00
2023-04-18T05:52:53.299Z,100.00
2023-04-18T05:55:25.905Z,100.00
2023-04-18T05:57:55.490Z,100.00
2023-04-18T06:00:25.256Z,100.00
2023-04-18T06:02:55.059Z,100.00
2023-04-18T06:05:25.005Z,100.00
2023-04-18T06:07:54.712Z,100.00
2023-04-18T06:10:26.965Z,100.00
2023-04-18T06:12:56.516Z,100.00
2023-04-18T06:15:26.041Z,100.00
2023-04-18T06:17:55.755Z,100.00
2023-04-18T06:20:25.653Z,100.00
2023-04-18T06:22:55.253Z,100.00
2023-04-18T06:25:27.479Z,100.00
2023-04-18T06:27:57.060Z,100.00
2023-04-18T06:30:26.740Z,100.00
2023-04-18T06:32:56.372Z,100.00
2023-04-18T06:35:26.707Z,100.00
2023-04-18T06:37:56.436Z,100.00
2023-04-18T06:40:28.621Z,100.00
2023-04-18T06:42:58.218Z,100.00
2023-04-18T06:45:27.839Z,100.00
2023-04-18T06:47:59.766Z,100.00
2023-04-18T06:50:29.477Z,100.00
2023-04-18T06:52:59.097Z,100.00
2023-04-18T06:55:31.257Z,100.00
2023-04-18T06:58:00.949Z,100.00
2023-04-18T07:00:30.515Z,100.00
2023-04-18T07:03:02.230Z,100.00
2023-04-18T07:05:31.953Z,100.00
2023-04-18T07:08:01.560Z,100.00
2023-04-18T07:10:33.729Z,100.00
2023-04-18T07:13:03.579Z,100.00
2023-04-18T07:15:33.133Z,100.00
2023-04-18T07:18:02.863Z,100.00
2023-04-18T07:20:32.491Z,100.00
2023-04-18T07:23:02.157Z,100.00
2023-04-18T07:25:34.479Z,100.00
2023-04-18T07:28:04.036Z,100.00
2023-04-18T07:30:33.604Z,100.00
2023-04-18T07:33:03.255Z,100.00
2023-04-18T07:35:33.023Z,100.00
2023-04-18T07:38:02.617Z,100.00
2023-04-18T07:40:34.806Z,100.00
2023-04-18T07:43:04.441Z,100.00
2023-04-18T07:45:35.891Z,100.00
2023-04-18T07:48:05.589Z,100.00
2023-04-18T07:50:35.222Z,100.00
2023-04-18T07:53:04.840Z,100.00
2023-04-18T07:55:36.992Z,100.00
2023-04-18T07:58:06.607Z,100.00
2023-04-18T08:00:37.183Z,100.00
2023-04-18T08:03:07.700Z,100.00
2023-04-18T08:05:37.599Z,100.00
2023-04-18T08:08:08.564Z,100.00
2023-04-18T08:10:40.836Z,100.00
2023-04-18T08:13:13.199Z,100.00
2023-04-18T08:15:42.886Z,100.00
2023-04-18T08:18:12.462Z,100.00
2023-04-18T08:20:42.021Z,100.00
2023-04-18T08:23:13.191Z,100.00
2023-04-18T08:25:45.947Z,100.00
2023-04-18T08:28:15.851Z,100.00
2023-04-18T08:30:48.897Z,100.00
2023-04-18T08:33:18.603Z,100.00
2023-04-18T08:35:48.214Z,100.00
2023-04-18T08:38:20.607Z,100.00
2023-04-18T08:40:52.760Z,100.00
2023-04-18T08:43:22.359Z,100.00
2023-04-18T08:45:52.488Z,100.00
2023-04-18T08:48:23.187Z,100.00
2023-04-18T08:50:52.740Z,100.00
2023-04-18T08:53:22.297Z,100.00
2023-04-18T08:56:00.461Z,100.00
2023-04-18T08:58:32.612Z,100.00
2023-04-18T09:01:02.497Z,100.00
2023-04-18T09:03:41.873Z,100.00
2023-04-18T09:06:13.853Z,100.00
2023-04-18T09:08:44.537Z,100.00
2023-04-18T09:11:29.027Z,100.00
2023-04-18T09:13:59.573Z,100.00
2023-04-18T09:16:31.441Z,100.00
2023-04-18T09:19:14.785Z,100.00
2023-04-18T09:21:46.339Z,100.00
2023-04-18T09:24:21.192Z,100.00
2023-04-18T09:26:54.382Z,100.00
2023-04-18T09:29:25.175Z,100.00
2023-04-18T09:31:59.930Z,100.00
2023-04-18T09:34:30.115Z,100.00
2023-04-18T09:37:17.541Z,100.00
2023-04-18T09:39:47.378Z,100.00
2023-04-18T09:42:19.583Z,100.00
2023-04-18T09:45:03.866Z,100.00
2023-04-18T09:47:35.126Z,100.00
2023-04-18T09:50:05.880Z,100.00
2023-04-18T09:52:37.059Z,100.00
2023-04-18T09:55:07.472Z,100.00
2023-04-18T09:57:40.891Z,100.00
2023-04-18T10:00:14.380Z,100.00
2023-04-18T10:02:52.409Z,100.00
2023-04-18T10:05:23.092Z,100.00
2023-04-18T10:07:52.971Z,100.00
2023-04-18T10:10:22.747Z,100.00
2023-04-18T10:12:56.533Z,100.00
2023-04-18T10:15:32.167Z,100.00
2023-04-18T10:18:05.854Z,100.00
2023-04-18T10:20:36.726Z,100.00
2023-04-18T10:23:37.390Z,100.00
2023-04-18T10:26:07.108Z,100.00
2023-04-18T10:29:04.198Z,100.00
2023-04-18T10:31:33.939Z,100.00
2023-04-18T10:34:05.534Z,100.00
2023-04-18T10:36:36.191Z,100.00
2023-04-18T10:39:22.550Z,100.00
2023-04-18T10:41:52.533Z,100.00
2023-04-18T10:44:25.830Z,100.00
2023-04-18T10:47:34.626Z,100.00
2023-04-18T10:50:09.096Z,100.00
2023-04-18T10:52:38.668Z,100.00
2023-04-18T10:55:13.080Z,100.00
2023-04-18T10:57:46.093Z,100.00
2023-04-18T11:00:20.678Z,100.00
2023-04-18T11:02:56.084Z,100.00
2023-04-18T11:05:27.377Z,100.00
2023-04-18T11:07:56.775Z,100.00
2023-04-18T11:10:27.222Z,100.00
2023-04-18T11:12:59.401Z,100.00
2023-04-18T11:15:31.588Z,100.00
2023-04-18T11:18:02.567Z,100.00
2023-04-18T11:20:32.279Z,100.00
2023-04-18T11:23:02.611Z,100.00
2023-04-18T11:25:34.593Z,100.00
2023-04-18T11:28:05.178Z,100.00
2023-04-18T11:30:41.771Z,100.00
2023-04-18T11:33:11.821Z,100.00
2023-04-18T11:35:41.644Z,100.00
2023-04-18T11:38:11.505Z,100.00
2023-04-18T11:40:41.281Z,100.00
2023-04-18T11:43:10.999Z,100.00
2023-04-18T11:45:49.661Z,100.00
2023-04-18T11:48:19.256Z,100.00
2023-04-18T11:50:48.821Z,100.00
2023-04-18T11:53:18.410Z,100.00
2023-04-18T11:55:57.176Z,100.00
2023-04-18T11:58:33.092Z,100.00
2023-04-18T12:01:18.160Z,100.00
2023-04-18T12:03:47.903Z,100.00
2023-04-18T12:06:17.733Z,100.00
2023-04-18T12:08:47.396Z,100.00
2023-04-18T12:11:22.620Z,100.00
2023-04-18T12:13:52.195Z,100.00
2023-04-18T12:16:24.387Z,100.00
2023-04-18T12:18:54.000Z,100.00
2023-04-18T12:21:27.241Z,100.00
2023-04-18T12:23:57.567Z,100.00
2023-04-18T12:26:27.593Z,100.00
2023-04-18T12:28:58.770Z,100.00
2023-04-18T12:31:30.995Z,100.00
2023-04-18T12:34:00.748Z,100.00
2023-04-18T12:36:31.074Z,100.00
2023-04-18T12:39:00.686Z,100.00
2023-04-18T12:41:30.247Z,100.00
2023-04-18T12:43:59.828Z,100.00
2023-04-18T12:46:31.987Z,100.00
2023-04-18T12:49:01.774Z,100.00
2023-04-18T12:51:31.594Z,100.00
2023-04-18T12:54:01.765Z,100.00
2023-04-18T12:56:31.314Z,100.00
2023-04-18T12:59:00.937Z,100.00
2023-04-18T13:01:33.151Z,100.00
2023-04-18T13:04:11.927Z,100.00
2023-04-18T13:06:42.718Z,100.00
2023-04-18T13:09:12.536Z,100.00
2023-04-18T13:11:42.159Z,100.00
2023-04-18T13:14:11.776Z,100.00
2023-04-18T13:16:44.335Z,100.00
2023-04-18T13:19:14.134Z,100.00
2023-04-18T13:21:43.761Z,100.00
2023-04-18T13:24:13.351Z,100.00
2023-04-18T13:26:42.915Z,100.00
2023-04-18T13:29:12.754Z,100.00
2023-04-18T13:31:45.163Z,100.00
2023-04-18T13:34:14.749Z,100.00
2023-04-18T13:36:44.314Z,100.00
2023-04-18T13:39:15.379Z,100.00
2023-04-18T13:41:45.200Z,100.00
2023-04-18T13:44:14.759Z,100.00
2023-04-18T13:46:46.912Z,100.00
2023-04-18T13:49:16.550Z,100.00
2023-04-18T13:51:46.151Z,100.00
2023-04-18T13:54:16.690Z,100.00
2023-04-18T13:56:46.238Z,100.00
2023-04-18T13:59:15.998Z,100.00
2023-04-18T14:01:49.278Z,100.00
2023-04-18T14:04:19.085Z,100.00
2023-04-18T14:06:48.988Z,100.00
2023-04-18T14:09:18.975Z,100.00
2023-04-18T14:11:48.761Z,100.00
2023-04-18T14:14:18.358Z,100.00
2023-04-18T14:16:50.527Z,100.00
2023-04-18T14:19:20.348Z,100.00
2023-04-18T14:21:49.914Z,100.00
2023-04-18T14:24:19.527Z,100.00
2023-04-18T14:26:49.083Z,100.00
2023-04-18T14:29:18.690Z,100.00
2023-04-18T14:31:50.851Z,100.00
2023-04-18T14:34:20.594Z,100.00
2023-04-18T14:36:50.160Z,100.00
2023-04-18T14:39:19.745Z,100.00
2023-04-18T14:41:49.324Z,100.00
2023-04-18T14:44:18.943Z,100.00
2023-04-18T14:46:51.221Z,100.00
2023-04-18T14:49:20.933Z,100.00
2023-04-18T14:51:50.493Z,100.00
2023-04-18T14:54:20.097Z,100.00
2023-04-18T14:56:49.700Z,100.00
2023-04-18T14:59:19.505Z,100.00
2023-04-18T15:01:52.131Z,100.00
2023-04-18T15:04:22.279Z,100.00
2023-04-18T15:06:52.040Z,100.00
2023-04-18T15:09:21.682Z,100.00
2023-04-18T15:11:51.699Z,100.00
2023-04-18T15:14:21.577Z,100.00
2023-04-18T15:16:54.571Z,100.00
2023-04-18T15:19:24.301Z,100.00
2023-04-18T15:21:54.253Z,100.00
2023-04-18T15:24:23.823Z,100.00
2023-04-18T15:26:53.575Z,100.00
2023-04-18T15:29:23.320Z,100.00
2023-04-18T15:31:55.802Z,100.00
2023-04-18T15:34:25.692Z,100.00
2023-04-18T15:36:55.279Z,100.00
2023-04-18T15:39:25.305Z,100.00
2023-04-18T15:41:56.670Z,100.00
2023-04-18T15:44:26.725Z,100.00
2023-04-18T15:47:01.196Z,100.00
2023-04-18T15:49:30.923Z,100.00
2023-04-18T15:52:00.496Z,100.00
2023-04-18T15:54:30.083Z,100.00
2023-04-18T15:56:59.684Z,100.00
2023-04-18T15:59:29.273Z,100.00
2023-04-18T16:02:01.653Z,100.00
2023-04-18T16:04:32.034Z,100.00
2023-04-18T16:07:01.630Z,100.00
2023-04-18T16:09:31.234Z,100.00
2023-04-18T16:12:01.711Z,100.00
2023-04-18T16:14:31.358Z,100.00
2023-04-18T16:17:03.869Z,100.00
2023-04-18T16:19:36.364Z,100.00
2023-04-18T16:22:07.249Z,100.00
2023-04-18T16:24:36.873Z,100.00
2023-04-18T16:27:06.604Z,100.00
2023-04-18T16:29:36.273Z,100.00
2023-04-18T16:32:09.418Z,100.00
2023-04-18T16:34:39.065Z,100.00
2023-04-18T16:37:08.664Z,100.00
2023-04-18T16:39:38.230Z,100.00
2023-04-18T16:42:07.969Z,100.00
2023-04-18T16:44:39.428Z,100.00
2023-04-18T16:47:11.634Z,100.00
2023-04-18T16:49:41.452Z,100.00
2023-04-18T16:52:11.017Z,100.00
2023-04-18T16:54:40.700Z,100.00
2023-04-18T16:57:10.248Z,100.00
2023-04-18T16:59:39.831Z,100.00
2023-04-18T17:02:12.071Z,100.00
2023-04-18T17:04:42.453Z,100.00
2023-04-18T17:07:12.074Z,100.00
2023-04-18T17:09:41.801Z,100.00
2023-04-18T17:12:11.351Z,100.00
2023-04-18T17:14:40.956Z,100.00
2023-04-18T17:17:13.121Z,100.00
2023-04-18T17:19:42.996Z,100.00
2023-04-18T17:22:12.575Z,100.00
2023-04-18T17:24:42.157Z,100.00
2023-04-18T17:27:12.045Z,100.00
2023-04-18T17:29:41.615Z,100.00
2023-04-18T17:32:13.880Z,100.00
2023-04-18T17:34:43.481Z,100.00
2023-04-18T17:37:14.951Z,100.00
2023-04-18T17:39:44.554Z,100.00
2023-04-18T17:42:14.131Z,100.00
2023-04-18T17:44:43.722Z,100.00
2023-04-18T17:47:15.943Z,100.00
2023-04-18T17:49:46.153Z,100.00
2023-04-18T17:52:15.762Z,100.00
2023-04-18T17:54:45.352Z,100.00
2023-04-18T17:57:14.911Z,100.00
2023-04-18T17:59:44.548Z,100.00
2023-04-18T18:02:16.910Z,100.00
2023-04-18T18:04:47.193Z,100.00
2023-04-18T18:07:16.809Z,100.00
2023-04-18T18:09:46.400Z,100.00
2023-04-18T18:12:15.952Z,100.00
2023-04-18T18:14:45.552Z,100.00
2023-04-18T18:17:17.825Z,100.00
2023-04-18T18:19:47.408Z,100.00
2023-04-18T18:22:17.879Z,100.00
2023-04-18T18:24:47.899Z,100.00
2023-04-18T18:27:19.668Z,100.00
2023-04-18T18:29:50.522Z,100.00
2023-04-18T18:32:22.706Z,100.00
2023-04-18T18:34:52.313Z,100.00
2023-04-18T18:37:23.305Z,100.00
2023-04-18T18:39:52.768Z,0.00
2023-04-18T18:42:22.360Z,0.00
2023-04-18T18:44:51.917Z,0.00
2023-04-18T18:47:24.082Z,0.00
2023-04-18T18:49:53.688Z,23.55
2023-04-18T18:52:24.211Z,23.53
2023-04-18T18:54:54.024Z,23.55
2023-04-18T18:57:23.654Z,23.55
2023-04-18T18:59:55.161Z,23.53
2023-04-18T19:02:28.240Z,23.55
2023-04-18T19:04:58.084Z,23.53
2023-04-18T19:07:29.880Z,23.54
2023-04-18T19:10:00.672Z,28.44
2023-04-18T19:12:30.244Z,23.54
2023-04-18T19:15:00.194Z,23.53
2023-04-18T19:17:32.414Z,23.53
2023-04-18T19:20:02.176Z,23.53
2023-04-18T19:22:31.896Z,23.53
2023-04-18T19:25:01.612Z,23.53
2023-04-18T19:27:31.227Z,23.55
2023-04-18T19:30:00.856Z,23.53
2023-04-18T19:32:33.343Z,28.44
2023-04-18T19:35:02.975Z,23.54
2023-04-18T19:37:32.538Z,23.67
2023-04-18T19:40:02.924Z,0.00
2023-04-18T19:42:32.551Z,23.59
2023-04-18T19:45:02.214Z,23.67
2023-04-18T19:47:34.458Z,23.66
2023-04-18T19:50:04.133Z,23.59
2023-04-18T19:52:33.696Z,23.54
2023-04-18T19:55:03.302Z,23.67
2023-04-18T19:57:33.031Z,28.59
2023-04-18T20:00:02.658Z,28.59
2023-04-18T20:02:34.979Z,100.00
2023-04-18T20:05:04.959Z,23.54
2023-04-18T20:07:34.981Z,22.98
2023-04-18T20:10:04.644Z,0.00
2023-04-18T20:12:34.183Z,100.00
2023-04-18T20:15:03.972Z,100.00
2023-04-18T20:17:36.701Z,100.00
2023-04-18T20:20:09.009Z,100.00
2023-04-18T20:22:40.470Z,100.00
2023-04-18T20:25:10.574Z,100.00
2023-04-18T20:27:40.224Z,100.00
2023-04-18T20:30:11.484Z,100.00
2023-04-18T20:32:43.687Z,100.00
2023-04-18T20:35:13.615Z,100.00
2023-04-18T20:37:43.265Z,100.00
2023-04-18T20:40:13.337Z,100.00
2023-04-18T20:42:42.866Z,100.00
2023-04-18T20:45:13.891Z,100.00
2023-04-18T20:47:45.875Z,100.00
2023-04-18T20:50:18.231Z,22.98
2023-04-18T20:52:47.792Z,100.00
2023-04-18T20:55:17.538Z,100.00
2023-04-18T20:57:47.096Z,100.00
2023-04-18T21:00:17.086Z,100.00
2023-04-18T21:02:49.433Z,22.98
2023-04-18T21:05:19.154Z,100.00
2023-04-18T21:07:49.453Z,100.00
2023-04-18T21:10:19.286Z,100.00
2023-04-18T21:12:49.059Z,22.98
2023-04-18T21:15:18.722Z,100.00
2023-04-18T21:17:52.820Z,22.98
2023-04-18T21:20:23.004Z,22.98
2023-04-18T21:22:52.571Z,22.98
2023-04-18T21:25:22.493Z,0.00
2023-04-18T21:27:52.852Z,22.98
2023-04-18T21:30:22.486Z,100.00
2023-04-18T21:32:54.741Z,100.00
2023-04-18T21:35:25.090Z,22.98
2023-04-18T21:37:54.744Z,22.98
2023-04-18T21:40:24.490Z,100.00
2023-04-18T21:42:54.035Z,100.00
2023-04-18T21:45:23.974Z,100.00
2023-04-18T21:47:56.149Z,100.00
2023-04-18T21:50:26.002Z,100.00
2023-04-18T21:52:55.566Z,22.98
2023-04-18T21:55:25.300Z,100.00
2023-04-18T21:57:55.298Z,100.00
2023-04-18T22:00:24.860Z,100.00
2023-04-18T22:02:57.272Z,100.00
2023-04-18T22:05:28.027Z,100.00
2023-04-18T22:07:58.628Z,100.00
2023-04-18T22:10:28.408Z,100.00
2023-04-18T22:12:58.548Z,100.00
2023-04-18T22:15:28.309Z,100.00
2023-04-18T22:18:01.273Z,100.00
2023-04-18T22:20:31.752Z,100.00
2023-04-18T22:23:01.303Z,100.00
2023-04-18T22:25:30.901Z,100.00
2023-04-18T22:28:00.468Z,100.00
2023-04-18T22:30:30.320Z,100.00
2023-04-18T22:33:02.809Z,100.00
2023-04-18T22:35:32.451Z,100.00
2023-04-18T22:38:02.082Z,100.00
2023-04-18T22:40:31.770Z,100.00
2023-04-18T22:43:01.336Z,100.00
2023-04-18T22:45:30.889Z,100.00
2023-04-18T22:48:03.224Z,0.00
2023-04-18T22:50:32.947Z,29.43
2023-04-18T22:53:02.515Z,100.00
2023-04-18T22:55:32.077Z,100.00
2023-04-18T22:58:01.676Z,100.00
2023-04-18T23:00:31.493Z,100.00
2023-04-18T23:03:04.209Z,100.00
2023-04-18T23:05:34.431Z,100.00
2023-04-18T23:08:04.018Z,100.00
2023-04-18T23:10:33.594Z,100.00
2023-04-18T23:13:03.285Z,100.00
2023-04-18T23:15:32.957Z,100.00
2023-04-18T23:18:05.315Z,100.00
2023-04-18T23:20:35.068Z,100.00
2023-04-18T23:23:04.667Z,100.00
2023-04-18T23:25:35.268Z,0.00
2023-04-18T23:28:04.895Z,100.00
2023-04-18T23:30:34.536Z,100.00
2023-04-18T23:33:06.811Z,100.00
2023-04-18T23:35:36.436Z,22.98
2023-04-18T23:38:06.319Z,100.00
2023-04-18T23:40:36.046Z,100.00
2023-04-18T23:43:05.610Z,100.00
2023-04-18T23:45:35.192Z,100.00
2023-04-18T23:48:07.391Z,22.38
2023-04-18T23:50:38.276Z,22.98
2023-04-18T23:53:08.167Z,100.00
2023-04-18T23:55:37.710Z,100.00
2023-04-18T23:58:07.393Z,100.00
